Time;durP1;ratioP1;P1;durP2;ratioP2;P2;SDS_P1;SDS_P2;PMS_P1;PMS_P2;Temp;Humidity;BMP_temperature;BMP_pressure;BME280_temperature;BME280_humidity;BME280_pressure;Samples;Min_cycle;Max_cycle;Signal;HPM_P1;HPM_P2
2024/01/29 00:00:53;;;;;;;6.80;3.00;;;4.70;79.50;;;;;;5032320;28;20492;-86
2024/01/29 00:03:19;;;;;;;6.30;2.90;;;4.70;79.60;;;;;;5032065;28;20032;-86
2024/01/29 00:05:46;;;;;;;7.33;3.10;;;4.60;79.70;;;;;;5032444;28;20032;-86
2024/01/29 00:08:12;;;;;;;6.43;2.60;;;4.60;79.80;;;;;;5033359;28;20022;-86
2024/01/29 00:10:37;;;;;;;7.57;3.33;;;4.60;79.70;;;;;;5012988;28;20041;-87
2024/01/29 00:13:03;;;;;;;8.13;3.40;;;4.50;79.80;;;;;;5013059;28;20033;-86
2024/01/29 00:15:29;;;;;;;8.47;3.30;;;4.50;79.90;;;;;;5013561;28;20026;-86
2024/01/29 00:17:54;;;;;;;10.20;2.97;;;4.40;80.00;;;;;;5013312;28;20371;-86
2024/01/29 00:20:20;;;;;;;8.53;3.00;;;4.40;80.00;;;;;;5012542;28;20080;-86
2024/01/29 00:22:45;;;;;;;9.13;3.60;;;4.40;80.10;;;;;;5013506;28;20064;-86
2024/01/29 00:25:11;;;;;;;7.90;3.40;;;4.40;80.20;;;;;;5013265;28;20080;-87
2024/01/29 00:27:37;;;;;;;6.97;3.00;;;4.50;80.30;;;;;;5012184;28;20034;-86
2024/01/29 00:30:03;;;;;;;8.53;3.37;;;4.40;80.40;;;;;;5012635;28;20037;-87
2024/01/29 00:32:29;;;;;;;6.90;2.70;;;4.40;80.40;;;;;;5013985;28;20030;-86
2024/01/29 00:34:55;;;;;;;7.20;2.77;;;4.30;80.40;;;;;;5012282;28;20029;-86
2024/01/29 00:37:22;;;;;;;6.27;2.90;;;4.30;80.50;;;;;;5012338;28;20115;-86
2024/01/29 00:39:50;;;;;;;9.47;3.00;;;4.30;80.60;;;;;;5012184;28;20026;-86
2024/01/29 00:42:16;;;;;;;6.30;2.53;;;4.30;80.80;;;;;;5011860;28;20080;-86
2024/01/29 00:44:42;;;;;;;6.50;2.80;;;4.40;81.00;;;;;;5013560;28;20033;-86
2024/01/29 00:47:09;;;;;;;6.60;3.00;;;4.20;81.00;;;;;;5012943;28;20101;-86
2024/01/29 00:49:35;;;;;;;6.30;3.07;;;4.20;81.20;;;;;;5011952;28;20014;-84
2024/01/29 00:52:02;;;;;;;5.27;2.47;;;4.20;81.30;;;;;;5013476;28;20030;-84
2024/01/29 00:54:28;;;;;;;8.00;3.40;;;4.20;81.70;;;;;;5011945;28;20028;-84
2024/01/29 00:56:53;;;;;;;5.47;2.53;;;4.20;81.60;;;;;;5011952;28;20446;-84
2024/01/29 00:59:19;;;;;;;8.30;3.03;;;4.10;81.60;;;;;;5013356;28;20075;-84
2024/01/29 01:01:45;;;;;;;7.00;2.83;;;4.10;81.70;;;;;;5012663;28;20108;-84
2024/01/29 01:04:10;;;;;;;8.10;3.10;;;4.00;81.70;;;;;;5013249;28;20105;-84
2024/01/29 01:06:36;;;;;;;5.93;2.60;;;4.00;81.80;;;;;;5016777;28;20032;-84
2024/01/29 01:09:03;;;;;;;7.23;2.93;;;4.00;81.80;;;;;;5016452;28;20030;-84
2024/01/29 01:11:29;;;;;;;6.50;2.53;;;4.00;82.00;;;;;;5016894;28;20378;-84
2024/01/29 01:13:54;;;;;;;8.33;2.77;;;3.90;82.00;;;;;;5016452;28;20025;-84
2024/01/29 01:16:20;;;;;;;5.93;3.10;;;3.90;82.80;;;;;;5016229;28;20021;-84
2024/01/29 01:18:46;;;;;;;7.57;3.03;;;3.90;82.20;;;;;;5016655;28;20029;-84
2024/01/29 01:21:11;;;;;;;7.13;2.73;;;3.90;82.30;;;;;;5015139;28;20057;-85
2024/01/29 01:23:38;;;;;;;9.10;3.23;;;3.90;82.50;;;;;;5015158;28;20034;-86
2024/01/29 01:26:04;;;;;;;6.37;2.80;;;3.80;82.50;;;;;;5016487;28;20052;-85
2024/01/29 01:28:30;;;;;;;8.37;3.00;;;3.80;82.60;;;;;;5016985;28;20026;-85
2024/01/29 01:30:55;;;;;;;8.10;3.67;;;3.80;82.70;;;;;;5016264;28;20068;-85
2024/01/29 01:33:21;;;;;;;9.53;3.03;;;3.80;82.90;;;;;;5016324;28;20025;-85
2024/01/29 01:35:46;;;;;;;8.27;2.70;;;3.80;83.00;;;;;;5014510;28;20049;-85
2024/01/29 01:38:12;;;;;;;6.37;2.83;;;3.80;83.10;;;;;;5014975;28;20486;-85
2024/01/29 01:40:38;;;;;;;6.53;2.63;;;3.70;83.20;;;;;;5014552;28;20474;-85
2024/01/29 01:43:17;;;;;;;6.97;2.97;;;3.70;83.20;;;;;;5014764;28;20432;-85
2024/01/29 01:45:43;;;;;;;7.73;3.27;;;3.70;83.40;;;;;;5015920;28;20069;-85
2024/01/29 01:48:09;;;;;;;7.67;3.40;;;3.70;83.40;;;;;;5015828;28;20494;-85
2024/01/29 01:50:34;;;;;;;6.33;2.83;;;3.70;83.50;;;;;;5015517;28;20040;-85
2024/01/29 01:53:00;;;;;;;6.67;3.27;;;3.60;83.50;;;;;;5014577;28;20469;-85
2024/01/29 01:55:27;;;;;;;8.17;2.97;;;3.70;83.70;;;;;;5014644;28;20029;-85
2024/01/29 01:57:53;;;;;;;10.50;3.20;;;3.70;83.70;;;;;;5015896;28;20029;-84
2024/01/29 02:00:20;;;;;;;6.87;3.00;;;3.80;83.90;;;;;;5014282;28;20478;-85
2024/01/29 02:02:45;;;;;;;9.60;3.67;;;3.70;83.90;;;;;;5014361;28;20026;-85
2024/01/29 02:05:11;;;;;;;9.77;3.20;;;3.70;83.90;;;;;;5015428;28;20030;-85
2024/01/29 02:07:37;;;;;;;6.20;3.07;;;3.70;84.00;;;;;;5014314;28;20116;-84
2024/01/29 02:10:04;;;;;;;7.27;3.07;;;3.70;84.00;;;;;;5015907;28;20034;-85
2024/01/29 02:12:30;;;;;;;7.77;3.47;;;3.70;84.10;;;;;;5014190;28;20030;-85
2024/01/29 02:14:56;;;;;;;6.63;2.67;;;3.60;84.10;;;;;;5015459;28;20386;-85
2024/01/29 02:17:21;;;;;;;6.03;2.67;;;3.70;84.20;;;;;;5014616;28;20041;-84
2024/01/29 02:19:47;;;;;;;6.00;2.83;;;3.70;84.30;;;;;;5014334;28;20526;-85
2024/01/29 02:22:13;;;;;;;9.63;3.63;;;3.60;84.30;;;;;;5015342;28;20022;-84
2024/01/29 02:24:38;;;;;;;7.53;3.17;;;3.60;84.30;;;;;;5017115;28;20022;-86
2024/01/29 02:27:04;;;;;;;6.53;2.90;;;3.60;84.40;;;;;;5014518;28;20030;-87
2024/01/29 02:29:30;;;;;;;7.13;3.20;;;3.60;84.50;;;;;;5015120;28;20029;-87
2024/01/29 02:31:56;;;;;;;6.73;2.80;;;3.70;84.60;;;;;;5015503;28;20022;-86
2024/01/29 02:34:21;;;;;;;5.63;2.73;;;3.60;84.60;;;;;;5015319;28;20025;-87
2024/01/29 02:36:47;;;;;;;5.97;2.73;;;3.60;84.80;;;;;;5014647;28;20108;-86
2024/01/29 02:39:13;;;;;;;6.53;3.00;;;3.60;84.90;;;;;;5013490;28;20127;-86
2024/01/29 02:41:38;;;;;;;6.33;2.90;;;3.60;85.00;;;;;;5013768;28;20117;-86
2024/01/29 02:44:04;;;;;;;5.83;2.60;;;3.60;85.10;;;;;;5013801;28;20022;-86
2024/01/29 02:46:30;;;;;;;6.07;2.63;;;3.60;85.30;;;;;;5014609;28;20030;-87
2024/01/29 02:48:55;;;;;;;6.30;3.10;;;3.50;85.30;;;;;;5013264;28;20026;-86
2024/01/29 02:51:21;;;;;;;5.70;2.50;;;3.60;85.50;;;;;;5013562;28;20033;-85
2024/01/29 02:53:46;;;;;;;6.23;2.70;;;3.50;85.60;;;;;;5014799;28;20030;-87
2024/01/29 02:56:12;;;;;;;5.33;2.63;;;3.60;85.80;;;;;;5014936;28;20034;-86
2024/01/29 02:58:38;;;;;;;9.30;2.90;;;3.60;85.80;;;;;;5013230;28;20025;-84
2024/01/29 03:01:04;;;;;;;7.00;3.63;;;3.60;85.80;;;;;;5013451;28;20466;-86
2024/01/29 03:03:29;;;;;;;9.40;3.50;;;3.70;85.80;;;;;;5013302;28;20037;-86
2024/01/29 03:05:55;;;;;;;8.27;3.17;;;3.60;85.80;;;;;;5013387;28;20033;-85
2024/01/29 03:08:20;;;;;;;8.73;3.07;;;3.60;85.90;;;;;;5014506;28;20034;-86
2024/01/29 03:10:46;;;;;;;6.33;3.00;;;3.60;86.00;;;;;;5013087;28;20037;-86
2024/01/29 03:13:12;;;;;;;6.60;3.03;;;3.60;86.20;;;;;;5013599;28;20022;-84
2024/01/29 03:15:37;;;;;;;5.80;2.63;;;3.60;86.30;;;;;;5012986;28;20486;-86
2024/01/29 03:18:03;;;;;;;7.70;3.60;;;3.60;86.40;;;;;;5012957;28;20038;-87
2024/01/29 03:20:29;;;;;;;5.73;2.87;;;3.60;86.40;;;;;;5012966;28;20018;-85
2024/01/29 03:22:54;;;;;;;6.20;2.90;;;3.60;86.50;;;;;;5014294;28;20156;-85
2024/01/29 03:25:20;;;;;;;8.60;3.13;;;3.60;86.60;;;;;;5012999;28;20505;-86
2024/01/29 03:27:45;;;;;;;7.57;2.77;;;3.60;86.70;;;;;;5013821;28;20029;-86
2024/01/29 03:30:11;;;;;;;7.47;3.17;;;3.60;86.80;;;;;;5017795;28;20025;-86
2024/01/29 03:32:37;;;;;;;9.73;3.50;;;3.60;87.00;;;;;;5020426;28;20030;-87
2024/01/29 03:35:03;;;;;;;6.73;2.93;;;3.70;87.20;;;;;;5016647;28;20026;-85
2024/01/29 03:37:29;;;;;;;7.67;3.17;;;3.70;87.30;;;;;;5026494;28;20044;-87
2024/01/29 03:39:54;;;;;;;6.90;3.10;;;3.70;87.40;;;;;;5032442;28;20120;-86
2024/01/29 03:42:20;;;;;;;5.23;2.80;;;3.70;87.50;;;;;;5033669;28;20033;-86
2024/01/29 03:44:45;;;;;;;8.93;4.10;;;3.70;87.60;;;;;;5033915;28;20423;-87
2024/01/29 03:47:11;;;;;;;7.00;3.10;;;3.80;87.60;;;;;;5031872;28;20026;-86
2024/01/29 03:49:36;;;;;;;5.37;2.80;;;3.80;87.70;;;;;;5032394;28;20036;-85
2024/01/29 03:52:02;;;;;;;7.77;3.33;;;3.80;87.70;;;;;;5032099;28;20489;-85
2024/01/29 03:54:28;;;;;;;7.03;2.97;;;3.80;87.70;;;;;;5033734;28;20057;-85
2024/01/29 03:56:53;;;;;;;6.57;3.07;;;3.80;87.70;;;;;;5032165;28;20025;-84
2024/01/29 03:59:19;;;;;;;6.67;3.20;;;3.80;87.70;;;;;;5033372;28;20041;-86
2024/01/29 04:01:44;;;;;;;7.33;3.27;;;3.80;87.90;;;;;;5032309;28;20363;-85
2024/01/29 04:04:10;;;;;;;6.60;3.03;;;3.90;88.10;;;;;;5032151;28;20112;-85
2024/01/29 04:06:39;;;;;;;8.00;3.53;;;3.80;88.10;;;;;;5032015;28;20035;-86
2024/01/29 04:09:06;;;;;;;5.60;2.70;;;3.90;88.20;;;;;;5033160;28;20033;-85
2024/01/29 04:11:32;;;;;;;9.50;3.53;;;3.80;88.10;;;;;;5033240;28;20025;-85
2024/01/29 04:13:57;;;;;;;9.17;3.73;;;4.00;88.40;;;;;;5032081;28;20033;-85
2024/01/29 04:16:24;;;;;;;7.30;2.97;;;3.80;88.30;;;;;;5032301;28;20493;-86
2024/01/29 04:18:49;;;;;;;9.30;3.63;;;3.90;88.30;;;;;;5031953;28;20497;-85
2024/01/29 04:21:15;;;;;;;6.47;3.03;;;3.80;88.40;;;;;;5033360;28;20029;-85
2024/01/29 04:23:41;;;;;;;11.20;3.67;;;3.80;88.50;;;;;;5033275;28;20074;-85
2024/01/29 04:26:06;;;;;;;6.80;3.43;;;3.80;88.60;;;;;;5032220;28;20371;-85
2024/01/29 04:28:32;;;;;;;7.43;2.70;;;3.90;88.70;;;;;;5033095;28;20047;-85
2024/01/29 04:30:57;;;;;;;7.60;2.67;;;3.80;88.70;;;;;;5032868;28;20021;-86
2024/01/29 04:33:23;;;;;;;6.77;3.10;;;3.80;88.70;;;;;;5033134;28;20143;-84
2024/01/29 04:35:49;;;;;;;6.10;3.00;;;3.90;88.80;;;;;;5031592;28;20056;-85
2024/01/29 04:38:14;;;;;;;11.27;3.40;;;3.80;88.70;;;;;;5033552;28;20504;-86
2024/01/29 04:40:41;;;;;;;7.73;3.30;;;3.80;88.80;;;;;;5035988;28;20026;-85
2024/01/29 04:43:07;;;;;;;5.90;3.10;;;3.80;88.90;;;;;;5037173;28;20024;-85
2024/01/29 04:45:32;;;;;;;8.30;3.50;;;3.80;88.90;;;;;;5036891;28;20025;-86
2024/01/29 04:47:58;;;;;;;7.83;2.77;;;3.70;88.90;;;;;;5035084;28;20527;-84
2024/01/29 04:50:23;;;;;;;6.13;2.73;;;3.70;89.00;;;;;;5036608;28;20033;-85
2024/01/29 04:52:49;;;;;;;7.00;3.40;;;3.70;89.00;;;;;;5036396;28;20109;-82
2024/01/29 04:55:15;;;;;;;8.67;3.67;;;3.80;89.20;;;;;;5035135;28;20021;-82
2024/01/29 04:57:41;;;;;;;7.00;3.63;;;3.70;89.20;;;;;;5035298;28;20030;-82
2024/01/29 05:00:08;;;;;;;9.83;3.20;;;3.70;89.30;;;;;;5036254;28;20108;-83
2024/01/29 05:02:35;;;;;;;7.10;3.50;;;3.70;89.50;;;;;;5036663;28;20087;-83
2024/01/29 05:05:01;;;;;;;6.23;2.77;;;3.70;89.50;;;;;;5036550;28;20033;-82
2024/01/29 05:07:27;;;;;;;6.33;3.23;;;3.70;89.60;;;;;;5034682;28;20028;-82
2024/01/29 05:09:54;;;;;;;9.20;3.23;;;3.70;89.50;;;;;;5036211;28;20386;-82
2024/01/29 05:12:19;;;;;;;5.93;3.07;;;3.60;89.60;;;;;;5036043;28;20021;-82
2024/01/29 05:14:45;;;;;;;6.33;2.87;;;3.60;89.60;;;;;;5031956;28;20172;-82
2024/01/29 05:17:11;;;;;;;9.73;4.10;;;3.70;89.80;;;;;;5023120;28;20099;-82
2024/01/29 05:19:40;;;;;;;6.40;3.10;;;3.70;89.90;;;;;;5035575;28;20497;-83
2024/01/29 05:22:05;;;;;;;7.47;3.47;;;3.60;90.00;;;;;;5034244;28;20025;-82
2024/01/29 05:24:31;;;;;;;6.93;3.03;;;3.50;90.00;;;;;;5034561;28;20068;-81
2024/01/29 05:26:57;;;;;;;8.50;3.70;;;3.60;90.00;;;;;;5034310;28;20022;-82
2024/01/29 05:29:22;;;;;;;7.37;3.47;;;3.60;90.00;;;;;;5035475;28;20021;-82
2024/01/29 05:31:48;;;;;;;6.40;3.27;;;3.60;90.10;;;;;;5035721;28;20033;-82
2024/01/29 05:34:13;;;;;;;10.10;3.77;;;3.50;90.10;;;;;;5034322;28;20535;-82
2024/01/29 05:36:39;;;;;;;7.20;2.87;;;3.50;90.20;;;;;;5035527;28;20041;-82
2024/01/29 05:39:05;;;;;;;6.67;3.60;;;3.60;90.30;;;;;;5034189;28;20052;-82
2024/01/29 05:41:30;;;;;;;9.30;4.13;;;3.60;90.40;;;;;;5034041;28;20017;-82
2024/01/29 05:43:56;;;;;;;7.90;3.33;;;3.60;90.50;;;;;;5033996;28;20026;-83
2024/01/29 05:46:21;;;;;;;8.20;3.13;;;3.60;90.50;;;;;;5034910;28;20028;-82
2024/01/29 05:48:47;;;;;;;8.20;3.53;;;3.70;90.50;;;;;;5035202;28;20030;-82
2024/01/29 05:51:13;;;;;;;5.90;3.30;;;3.70;90.50;;;;;;5035052;28;20512;-82
2024/01/29 05:53:38;;;;;;;8.53;3.93;;;3.70;90.60;;;;;;5035449;28;20151;-82
2024/01/29 05:56:05;;;;;;;7.47;3.63;;;3.70;90.80;;;;;;5035163;28;20105;-82
2024/01/29 05:58:33;;;;;;;7.30;3.40;;;3.80;90.90;;;;;;5035099;28;20477;-83
2024/01/29 06:00:59;;;;;;;6.40;3.47;;;3.80;90.90;;;;;;5034827;28;20040;-82
2024/01/29 06:03:25;;;;;;;10.30;4.17;;;3.90;91.00;;;;;;5035100;28;20532;-82
2024/01/29 06:05:51;;;;;;;10.03;3.83;;;4.00;91.10;;;;;;5033715;28;20421;-82
2024/01/29 06:08:17;;;;;;;8.73;3.73;;;4.10;91.00;;;;;;5033425;28;20025;-81
2024/01/29 06:10:43;;;;;;;7.97;4.10;;;4.10;91.00;;;;;;5034625;28;20037;-82
2024/01/29 06:13:08;;;;;;;6.83;3.60;;;4.20;91.20;;;;;;5034540;28;20075;-81
2024/01/29 06:15:34;;;;;;;7.90;3.30;;;4.20;91.20;;;;;;5033676;28;20029;-82
2024/01/29 06:18:00;;;;;;;7.23;3.83;;;4.30;91.20;;;;;;5028097;28;20028;-82
2024/01/29 06:20:25;;;;;;;8.23;3.13;;;4.40;91.30;;;;;;5030448;28;20052;-82
2024/01/29 06:22:52;;;;;;;7.90;3.73;;;4.40;91.30;;;;;;5023739;28;20033;-82
2024/01/29 06:25:19;;;;;;;9.17;4.37;;;4.50;91.30;;;;;;5031338;28;20120;-82
2024/01/29 06:27:45;;;;;;;8.70;3.80;;;4.40;91.40;;;;;;5032582;28;20017;-82
2024/01/29 06:30:12;;;;;;;9.57;3.47;;;4.60;91.40;;;;;;5033801;28;20078;-82
2024/01/29 06:32:37;;;;;;;7.40;3.83;;;4.60;91.40;;;;;;5033879;28;20500;-82
2024/01/29 06:35:03;;;;;;;8.23;4.00;;;4.70;91.50;;;;;;5033634;28;20029;-83
2024/01/29 06:37:28;;;;;;;9.70;3.80;;;4.70;91.40;;;;;;5026511;28;20032;-81
2024/01/29 06:39:54;;;;;;;8.50;4.40;;;4.70;91.40;;;;;;5016000;28;20041;-82
2024/01/29 06:42:20;;;;;;;9.53;4.27;;;4.80;91.40;;;;;;5025845;28;20079;-82
2024/01/29 06:44:46;;;;;;;8.33;4.03;;;4.80;91.30;;;;;;5033830;28;20504;-82
2024/01/29 06:47:12;;;;;;;6.83;3.40;;;4.80;91.30;;;;;;5032618;28;20032;-82
2024/01/29 06:49:37;;;;;;;8.27;3.80;;;4.80;91.20;;;;;;5033989;28;20028;-82
2024/01/29 06:52:03;;;;;;;8.70;4.07;;;4.70;91.20;;;;;;5027002;28;20109;-82
2024/01/29 06:54:29;;;;;;;8.10;3.90;;;4.80;91.20;;;;;;5014209;28;20022;-82
2024/01/29 06:56:55;;;;;;;7.13;3.57;;;4.80;91.20;;;;;;5014046;28;20017;-82
2024/01/29 06:59:23;;;;;;;7.37;3.70;;;4.80;91.20;;;;;;5018636;28;20504;-82
2024/01/29 07:01:49;;;;;;;8.50;3.40;;;4.80;91.20;;;;;;5033305;28;20025;-82
2024/01/29 07:04:15;;;;;;;7.97;3.73;;;4.80;91.30;;;;;;5033473;28;20471;-82
2024/01/29 07:06:42;;;;;;;7.83;3.53;;;4.80;91.30;;;;;;5033757;28;20021;-82
2024/01/29 07:09:07;;;;;;;10.10;4.33;;;4.80;91.40;;;;;;5030023;28;20032;-82
2024/01/29 07:11:33;;;;;;;8.33;4.03;;;4.80;91.40;;;;;;5016219;28;20030;-83
2024/01/29 07:13:59;;;;;;;9.50;4.30;;;4.80;91.40;;;;;;5012111;28;20362;-83
2024/01/29 07:16:24;;;;;;;9.23;3.67;;;4.90;91.40;;;;;;5013087;28;20030;-82
2024/01/29 07:18:50;;;;;;;8.07;3.70;;;4.80;91.30;;;;;;5012508;28;20084;-82
2024/01/29 07:21:16;;;;;;;8.37;3.90;;;4.90;91.40;;;;;;5013854;28;20022;-82
2024/01/29 07:23:42;;;;;;;7.50;3.30;;;4.90;91.30;;;;;;5013638;28;20017;-83
2024/01/29 07:26:08;;;;;;;10.00;4.13;;;4.90;91.40;;;;;;5011988;28;20014;-81
2024/01/29 07:28:33;;;;;;;7.67;3.67;;;5.00;91.40;;;;;;5011990;28;20112;-82
2024/01/29 07:30:59;;;;;;;10.13;3.90;;;5.00;91.40;;;;;;5013516;28;20030;-82
2024/01/29 07:33:24;;;;;;;8.53;4.13;;;5.00;91.40;;;;;;5012159;28;20065;-82
2024/01/29 07:35:50;;;;;;;9.27;4.00;;;5.00;91.40;;;;;;5013375;28;20053;-82
2024/01/29 07:38:17;;;;;;;6.87;3.67;;;5.10;91.40;;;;;;5013489;28;20548;-82
2024/01/29 07:40:43;;;;;;;7.50;3.97;;;5.10;91.40;;;;;;5013608;28;20029;-83
2024/01/29 07:43:09;;;;;;;8.07;3.87;;;5.20;91.50;;;;;;5013523;28;20424;-82
2024/01/29 07:45:35;;;;;;;10.80;3.43;;;5.20;91.40;;;;;;5013354;28;20156;-82
2024/01/29 07:48:03;;;;;;;7.90;4.30;;;5.20;91.40;;;;;;5011758;28;20037;-82
2024/01/29 07:50:28;;;;;;;8.53;3.53;;;5.20;91.50;;;;;;5013497;28;20034;-82
2024/01/29 07:52:54;;;;;;;8.97;3.87;;;5.20;91.50;;;;;;5011968;28;20032;-82
2024/01/29 07:55:22;;;;;;;7.83;3.83;;;5.30;91.50;;;;;;5012234;28;20024;-82
2024/01/29 07:57:47;;;;;;;6.50;3.50;;;5.30;91.50;;;;;;5013002;28;20030;-82
2024/01/29 08:00:13;;;;;;;8.27;4.30;;;5.40;91.60;;;;;;5021783;28;20018;-82
2024/01/29 08:02:39;;;;;;;8.60;3.93;;;5.40;91.60;;;;;;5023291;28;20097;-82
2024/01/29 08:05:05;;;;;;;9.07;3.77;;;5.50;91.60;;;;;;5032811;28;20377;-82
2024/01/29 08:07:30;;;;;;;6.73;3.93;;;5.50;91.50;;;;;;5033035;28;20021;-82
2024/01/29 08:09:58;;;;;;;7.63;4.27;;;5.60;91.50;;;;;;5020147;28;20032;-82
2024/01/29 08:12:23;;;;;;;7.77;3.40;;;5.60;91.50;;;;;;5016976;28;20022;-82
2024/01/29 08:14:49;;;;;;;8.60;4.23;;;5.70;91.40;;;;;;5021899;28;20072;-82
2024/01/29 08:17:15;;;;;;;8.23;4.20;;;5.60;91.40;;;;;;5036775;28;20392;-82
2024/01/29 08:19:40;;;;;;;8.83;4.33;;;5.80;91.40;;;;;;5036969;28;20033;-82
2024/01/29 08:22:06;;;;;;;7.57;3.93;;;5.80;91.40;;;;;;5034837;28;20028;-82
2024/01/29 08:24:31;;;;;;;8.23;4.17;;;5.80;91.40;;;;;;5032173;28;20021;-82
2024/01/29 08:26:57;;;;;;;10.63;4.93;;;5.90;91.30;;;;;;5031484;28;20030;-82
2024/01/29 08:29:23;;;;;;;7.67;4.53;;;5.90;91.30;;;;;;5027561;28;20470;-82
2024/01/29 08:31:48;;;;;;;8.43;4.07;;;6.00;91.30;;;;;;5017042;28;20026;-81
2024/01/29 08:34:14;;;;;;;9.43;4.43;;;6.00;91.30;;;;;;5015959;28;20033;-81
2024/01/29 08:36:39;;;;;;;11.23;4.37;;;6.00;91.30;;;;;;5015963;28;20052;-81
2024/01/29 08:39:05;;;;;;;9.63;4.70;;;6.10;91.30;;;;;;5016534;28;20041;-81
2024/01/29 08:41:31;;;;;;;9.43;4.90;;;6.20;91.30;;;;;;5016680;28;20368;-81
2024/01/29 08:43:56;;;;;;;7.17;4.00;;;6.20;91.20;;;;;;5016751;28;20084;-81
2024/01/29 08:46:22;;;;;;;10.03;5.30;;;6.30;91.20;;;;;;5016099;28;20053;-81
2024/01/29 08:48:47;;;;;;;9.87;4.20;;;6.30;91.20;;;;;;5016429;28;20457;-81
2024/01/29 08:51:13;;;;;;;8.57;4.73;;;6.30;91.20;;;;;;5021282;28;20033;-81
2024/01/29 08:53:39;;;;;;;7.83;4.63;;;6.40;91.20;;;;;;5022683;28;20477;-83
2024/01/29 08:56:08;;;;;;;8.67;4.50;;;6.40;91.10;;;;;;5031007;28;20021;-80
2024/01/29 08:58:34;;;;;;;9.13;5.17;;;6.50;91.10;;;;;;5035794;28;20025;-81
2024/01/29 09:00:59;;;;;;;12.17;5.23;;;6.50;91.00;;;;;;5035884;28;20060;-81
2024/01/29 09:03:27;;;;;;;9.37;5.27;;;6.60;91.00;;;;;;5035849;28;20061;-81
2024/01/29 09:05:53;;;;;;;10.23;5.03;;;6.60;91.00;;;;;;5034535;28;20022;-81
2024/01/29 09:08:19;;;;;;;12.23;4.63;;;6.60;91.00;;;;;;5034394;28;20029;-83
2024/01/29 09:10:44;;;;;;;10.67;4.73;;;6.70;91.00;;;;;;5035474;28;20532;-83
2024/01/29 09:13:10;;;;;;;8.50;4.57;;;6.80;91.00;;;;;;5034625;28;20067;-82
2024/01/29 09:15:36;;;;;;;8.70;4.87;;;6.80;91.00;;;;;;5034369;28;20025;-81
2024/01/29 09:18:01;;;;;;;11.70;4.90;;;6.80;90.90;;;;;;5028022;28;20504;-82
2024/01/29 09:20:28;;;;;;;8.43;4.03;;;6.80;90.90;;;;;;5025585;28;20034;-81
2024/01/29 09:22:54;;;;;;;11.13;5.20;;;6.90;90.90;;;;;;5019450;28;20076;-81
2024/01/29 09:25:19;;;;;;;9.00;4.50;;;7.00;90.90;;;;;;5014882;28;20018;-81
2024/01/29 09:27:45;;;;;;;9.23;5.10;;;7.00;90.90;;;;;;5014581;28;20033;-82
2024/01/29 09:30:11;;;;;;;9.70;4.93;;;7.00;90.90;;;;;;5016798;28;20053;-82
2024/01/29 09:32:37;;;;;;;10.30;4.93;;;7.10;90.90;;;;;;5025341;28;20021;-82
2024/01/29 09:35:04;;;;;;;8.67;4.93;;;7.10;90.80;;;;;;5022671;28;20105;-81
2024/01/29 09:37:29;;;;;;;8.20;4.30;;;7.20;90.90;;;;;;5027967;28;20496;-81
2024/01/29 09:39:55;;;;;;;9.63;4.60;;;7.30;90.90;;;;;;5034809;28;20033;-82
2024/01/29 09:42:24;;;;;;;9.30;4.97;;;7.30;90.90;;;;;;5025231;28;20531;-82
2024/01/29 09:44:54;;;;;;;7.67;4.47;;;7.50;90.90;;;;;;5024729;28;20371;-82
2024/01/29 09:47:20;;;;;;;8.30;4.37;;;7.60;90.90;;;;;;5024157;28;20421;-81
2024/01/29 09:49:46;;;;;;;8.13;4.67;;;7.70;90.90;;;;;;5024238;28;20028;-82
2024/01/29 09:52:13;;;;;;;8.20;4.57;;;7.80;90.90;;;;;;5025534;28;20034;-81
2024/01/29 09:54:42;;;;;;;9.67;4.93;;;8.00;90.80;;;;;;5024292;28;20066;-82
2024/01/29 09:57:11;;;;;;;8.27;4.20;;;8.20;90.80;;;;;;5023878;28;20496;-82
2024/01/29 09:59:37;;;;;;;10.47;4.73;;;8.50;90.90;;;;;;5024419;28;20048;-82
2024/01/29 10:02:03;;;;;;;9.13;5.00;;;8.80;90.90;;;;;;5024712;28;20030;-81
2024/01/29 10:04:29;;;;;;;8.37;4.37;;;9.10;90.90;;;;;;5023386;28;20027;-82
2024/01/29 10:06:55;;;;;;;10.30;4.45;;;9.50;91.20;;;;;;5027483;28;20034;-82
2024/01/29 10:09:20;;;;;;;7.72;3.97;;;9.90;91.40;;;;;;5015047;28;20026;-82
2024/01/29 10:11:46;;;;;;;8.52;4.15;;;10.40;91.60;;;;;;5014751;28;20111;-82
2024/01/29 10:14:12;;;;;;;7.95;4.22;;;10.90;91.50;;;;;;5013684;28;20022;-82
2024/01/29 10:16:38;;;;;;;6.72;3.47;;;11.40;91.20;;;;;;5014667;28;20034;-82
2024/01/29 10:19:05;;;;;;;7.25;3.67;;;11.80;90.80;;;;;;5014799;28;20049;-83
2024/01/29 10:21:38;;;;;;;6.25;3.38;;;12.20;90.70;;;;;;5014814;28;20034;-83
2024/01/29 10:24:04;;;;;;;5.80;3.37;;;12.50;89.40;;;;;;5013293;28;20045;-82
2024/01/29 10:26:30;;;;;;;7.30;3.85;;;12.70;87.00;;;;;;5014686;28;20048;-82
2024/01/29 10:29:03;;;;;;;7.03;3.63;;;12.80;86.00;;;;;;5013512;28;20029;-82
2024/01/29 10:31:29;;;;;;;7.53;4.07;;;12.80;84.30;;;;;;5013030;28;20441;-82
2024/01/29 10:33:55;;;;;;;7.68;3.78;;;12.80;80.70;;;;;;5014693;28;20021;-81
2024/01/29 10:36:21;;;;;;;9.43;4.40;;;12.80;81.20;;;;;;5014221;28;20061;-82
2024/01/29 10:38:48;;;;;;;6.78;3.65;;;12.90;81.80;;;;;;5013705;28;20042;-82
2024/01/29 10:41:20;;;;;;;6.95;3.58;;;13.10;81.80;;;;;;5014237;28;20022;-82
2024/01/29 10:43:48;;;;;;;7.00;3.88;;;13.20;81.40;;;;;;5034081;28;20485;-82
2024/01/29 10:46:19;;;;;;;9.35;4.53;;;13.40;80.70;;;;;;5034245;28;20021;-82
2024/01/29 10:48:45;;;;;;;8.00;3.95;;;13.50;80.30;;;;;;5032479;28;20418;-82
2024/01/29 10:51:13;;;;;;;5.53;3.25;;;13.70;79.60;;;;;;5033971;28;20030;-82
2024/01/29 10:53:44;;;;;;;7.60;3.42;;;13.80;79.70;;;;;;5024324;28;20490;-82
2024/01/29 10:56:10;;;;;;;6.35;3.78;;;14.00;79.20;;;;;;5030674;28;20190;-82
2024/01/29 10:58:37;;;;;;;7.25;3.88;;;14.20;77.00;;;;;;5027376;28;20021;-83
2024/01/29 11:01:06;;;;;;;9.05;4.57;;;14.20;76.40;;;;;;5025111;28;20077;-83
2024/01/29 11:03:34;;;;;;;6.15;3.60;;;14.20;74.80;;;;;;5046021;28;20025;-83
2024/01/29 11:06:17;;;;;;;8.05;3.55;;;14.20;74.00;;;;;;5022429;28;20018;-82
2024/01/29 11:08:48;;;;;;;7.53;3.88;;;14.40;73.70;;;;;;5023431;28;20079;-82
2024/01/29 11:11:14;;;;;;;6.68;3.47;;;14.60;74.30;;;;;;5024202;28;20100;-82
2024/01/29 11:13:41;;;;;;;7.07;3.78;;;14.90;74.00;;;;;;5022387;28;20449;-83
2024/01/29 11:16:07;;;;;;;7.60;4.20;;;15.20;73.80;;;;;;5020718;28;20013;-83
2024/01/29 11:18:36;;;;;;;6.40;3.28;;;15.70;74.30;;;;;;5023611;28;20017;-83
2024/01/29 11:21:24;;;;;;;8.07;3.67;;;16.10;73.40;;;;;;5023825;28;20045;-83
2024/01/29 11:23:54;;;;;;;6.80;4.07;;;16.50;72.80;;;;;;5026900;28;20068;-82
2024/01/29 11:26:21;;;;;;;6.63;3.63;;;16.90;71.50;;;;;;5030625;28;20029;-83
2024/01/29 11:29:01;;;;;;;7.60;3.92;;;17.30;70.20;;;;;;5029010;28;20029;-83
2024/01/29 11:31:41;;;;;;;7.43;4.65;;;17.50;68.90;;;;;;5023799;28;20033;-84
2024/01/29 11:34:07;;;;;;;7.22;3.60;;;17.60;67.70;;;;;;5046562;28;20017;-83
2024/01/29 11:36:37;;;;;;;6.60;3.53;;;17.80;68.30;;;;;;5021774;28;20099;-83
2024/01/29 11:39:17;;;;;;;7.40;3.42;;;18.10;67.50;;;;;;5023842;28;20029;-83
2024/01/29 11:41:49;;;;;;;5.95;3.17;;;18.40;67.00;;;;;;5022812;28;20018;-83
2024/01/29 11:44:18;;;;;;;6.15;3.08;;;18.60;66.30;;;;;;5023805;28;20049;-83
2024/01/29 11:46:44;;;;;;;6.18;3.45;;;18.70;65.90;;;;;;5021937;28;20022;-81
2024/01/29 11:49:10;;;;;;;7.90;3.33;;;18.80;64.30;;;;;;5022084;28;20090;-83
2024/01/29 11:51:37;;;;;;;6.00;3.83;;;18.70;63.10;;;;;;5026726;28;20477;-83
2024/01/29 11:54:04;;;;;;;7.63;4.25;;;18.50;63.40;;;;;;5031415;28;20362;-83
2024/01/29 11:56:29;;;;;;;6.32;4.15;;;18.50;62.30;;;;;;5031750;28;20469;-84
2024/01/29 11:59:02;;;;;;;8.48;4.50;;;18.50;61.50;;;;;;5033015;28;20029;-83
2024/01/29 12:01:29;;;;;;;6.78;4.05;;;18.40;61.20;;;;;;5032580;28;20032;-83
2024/01/29 12:03:55;;;;;;;6.35;3.95;;;18.30;61.60;;;;;;5032797;28;20041;-83
2024/01/29 12:06:21;;;;;;;5.60;3.30;;;18.40;61.50;;;;;;5031539;28;20060;-83
2024/01/29 12:08:47;;;;;;;7.05;3.75;;;18.40;61.30;;;;;;5032797;28;20514;-82
2024/01/29 12:11:14;;;;;;;7.40;3.83;;;18.50;61.10;;;;;;5032420;28;20018;-83
2024/01/29 12:13:40;;;;;;;7.78;4.18;;;18.50;60.80;;;;;;5032631;28;20068;-83
2024/01/29 12:16:07;;;;;;;8.57;4.65;;;18.40;60.40;;;;;;5032212;28;20037;-83
2024/01/29 12:18:35;;;;;;;7.82;4.63;;;18.30;60.30;;;;;;5032787;28;20064;-83
2024/01/29 12:21:01;;;;;;;9.43;4.90;;;18.20;60.20;;;;;;5031298;28;20021;-83
2024/01/29 12:23:27;;;;;;;7.50;4.18;;;18.10;60.10;;;;;;5032542;28;20389;-83
2024/01/29 12:25:54;;;;;;;7.22;3.67;;;18.10;60.40;;;;;;5032629;28;20021;-83
2024/01/29 12:28:20;;;;;;;7.60;4.45;;;18.10;60.80;;;;;;5032235;28;20026;-83
2024/01/29 12:31:06;;;;;;;9.93;3.85;;;18.40;60.90;;;;;;5031017;28;20477;-83
2024/01/29 12:33:33;;;;;;;8.93;3.92;;;18.70;60.70;;;;;;5032584;28;20033;-83
2024/01/29 12:36:13;;;;;;;5.43;3.53;;;19.00;60.50;;;;;;5031082;28;20442;-83
2024/01/29 12:38:40;;;;;;;6.97;3.85;;;19.20;60.00;;;;;;5032966;28;20025;-83
2024/01/29 12:41:06;;;;;;;6.80;3.72;;;19.30;60.00;;;;;;5026410;28;20030;-83
2024/01/29 12:43:32;;;;;;;6.72;3.85;;;19.50;59.70;;;;;;5018988;28;20057;-83
2024/01/29 12:46:06;;;;;;;6.70;3.97;;;19.70;59.30;;;;;;5029670;28;20036;-83
2024/01/29 12:48:31;;;;;;;7.60;3.78;;;19.90;59.10;;;;;;5032127;28;20029;-83
2024/01/29 12:50:57;;;;;;;6.18;3.72;;;20.20;59.10;;;;;;5031051;28;20022;-84